Delray Beach, FL

11:23 AM EDT on September 05, 2015 (GMT -0400)
Palm Beach International | | Change Station
CLOSE
Current Station
Airport
Location: West Palm Beach,
Elevation: 20 ft
Nearby Weather Stations

Elev 20 ft 26.68 °N, 80.10 °W | Updated 30 minutes ago

Partly Cloudy
Partly Cloudy
87 °F
Feels Like 96 °F
N
5
Wind Variable Wind from ENE

Today
High -- | Low -- °F
--% Chance of Precip.
Yesterday
High -- | Low -- °F
Precip. -- in
7:01 AM 7:36 PM
Waning Gibbous, 48% visible
Pressure 30.02 in
Visibility 10.0 miles
Clouds Scattered Clouds 2700 ft
Scattered Clouds 25000 ft
Heat Index 96 °F
Dew Point 75 °F
Humidity 67%
Rainfall 0.00 in
Snow Depth Not available.
UV 7 out of 12
Pollen 2.00 out of 12
Air Quality Not available.
Flu Activity Not available.
METAR KPBI 051453Z 06004KT 10SM SCT027 SCT250 31/24 A3002 RMK AO2 SLP164 T03060239 53008 $
Pressure 30.02 in
Visibility 10.0 miles
Clouds Scattered Clouds 2700 ft
Scattered Clouds 25000 ft
Heat Index 96 °F
Dew Point 75 °F
Humidity 67%
Rainfall 0.00 in
Snow Depth Not available.
UV 7 out of 12
Pollen 2.00 out of 12
Air Quality Not available.
Flu Activity Not available.
METAR KPBI 051453Z 06004KT 10SM SCT027 SCT250 31/24 A3002 RMK AO2 SLP164 T03060239 53008 $

10-Day Weather Forecast

×

Almanac

Astronomy

Sep. 05, 2015 Rise Set
Actual Time
Civil Twilight
Nautical Twilight
Astronomical Twilight
Moon
Length of Visible Light
Length of Day
Tomorrow will be .
, % of the Moon is Illuminated

Today's Extremes

State Highs State Lows

Community

WunderPhotos

Upload Photos

1,852,482 photos uploaded!

WunderBlogs® & News

Nearby

Air Quality

  Air Quality AQ Index Pollutant
Not available.

Snow Depth

Station Depth Elevation

Earthquake Activity

City Distance Mag. Time & Date
Minimum magnitude displayed is 2.5.

Coastal Water Temperatures

Place Temperature

Stations

Nearby Weather Stations

Station Location Temp. Windchill Dew Point Humidity Wind Precip. Elev Updated Type